Time;durP1;ratioP1;P1;durP2;ratioP2;P2;SDS_P1;SDS_P2;PMS_P1;PMS_P2;Temp;Humidity;BMP_temperature;BMP_pressure;BME280_temperature;BME280_humidity;BME280_pressure;Samples;Min_cycle;Max_cycle;Signal;HPM_P1;HPM_P2
2023/07/15 00:04:53;;;;;;;3.08;2.75;;;;;;;28.13;41.53;101060.88;21074646;28;20048;-75
2023/07/15 00:14:57;;;;;;;2.55;2.35;;;;;;;28.08;41.23;101058.22;21076335;28;20074;-76
2023/07/15 00:24:58;;;;;;;2.50;2.30;;;;;;;28.02;41.43;101053.91;21076498;28;20368;-77
2023/07/15 00:35:02;;;;;;;2.80;2.58;;;;;;;28.04;41.53;101051.59;21076124;28;20028;-75
2023/07/15 00:45:03;;;;;;;4.35;2.80;;;;;;;28.15;41.46;101058.59;21075903;28;20105;-75
2023/07/15 00:55:05;;;;;;;2.70;2.50;;;;;;;28.11;41.66;101069.66;21075692;28;20032;-76
2023/07/15 01:05:08;;;;;;;3.13;2.53;;;;;;;28.08;41.41;101053.41;21073471;28;20109;-76
2023/07/15 01:15:10;;;;;;;4.13;2.72;;;;;;;28.09;41.46;101055.09;21073613;28;20044;-76
2023/07/15 01:25:12;;;;;;;3.65;2.88;;;;;;;27.67;41.99;100997.53;21080943;28;20101;-76
2023/07/15 01:35:13;;;;;;;3.30;2.63;;;;;;;28.10;41.45;101073.63;21088642;28;20028;-74
2023/07/15 01:45:15;;;;;;;3.00;2.80;;;;;;;27.77;41.56;101025.41;21087991;28;20097;-74
2023/07/15 01:55:17;;;;;;;3.45;3.13;;;;;;;28.09;41.39;101088.03;21084825;28;20036;-76
2023/07/15 02:05:18;;;;;;;3.72;2.85;;;;;;;28.14;41.64;101107.56;21086118;28;20048;-76
2023/07/15 02:15:23;;;;;;;2.85;2.63;;;;;;;28.15;41.22;101143.00;21086897;28;20044;-76
2023/07/15 02:25:25;;;;;;;3.33;2.97;;;;;;;27.96;41.05;101128.38;21084709;28;20032;-75
2023/07/15 02:35:27;;;;;;;3.20;3.00;;;;;;;28.13;41.47;101153.72;21081539;28;20089;-76
2023/07/15 02:45:29;;;;;;;4.93;3.20;;;;;;;28.14;41.73;101157.41;21083052;28;20380;-75
2023/07/15 02:55:30;;;;;;;3.42;2.97;;;;;;;28.14;41.78;101157.41;21082125;28;20089;-75
2023/07/15 03:05:32;;;;;;;3.47;3.17;;;;;;;28.14;41.43;101177.91;21080644;28;20101;-77
2023/07/15 03:15:36;;;;;;;3.20;2.90;;;;;;;28.03;41.65;101162.47;21080768;28;20063;-76
2023/07/15 03:25:37;;;;;;;4.07;3.47;;;;;;;28.14;42.00;101169.47;21079980;28;20448;-75
2023/07/15 03:35:39;;;;;;;4.40;3.60;;;;;;;27.92;41.66;101150.69;21078938;28;20036;-77
2023/07/15 03:45:40;;;;;;;4.00;3.63;;;;;;;28.09;41.82;101189.31;21078258;28;20510;-77
2023/07/15 03:55:44;;;;;;;5.13;4.05;;;;;;;28.12;41.75;101194.28;21078045;28;20086;-75
2023/07/15 04:05:46;;;;;;;4.18;3.78;;;;;;;28.01;41.96;101192.91;21078825;28;20480;-76
2023/07/15 04:15:47;;;;;;;4.22;3.83;;;;;;;28.12;42.01;101222.41;21073575;28;20062;-75
2023/07/15 04:25:49;;;;;;;4.80;4.25;;;;;;;28.11;41.92;101229.19;21076564;28;20024;-77
2023/07/15 04:35:51;;;;;;;4.75;4.13;;;;;;;28.09;41.70;101218.28;21074889;28;20093;-75
2023/07/15 04:45:52;;;;;;;4.28;3.88;;;;;;;27.99;41.83;101204.47;21074591;28;20040;-77
2023/07/15 04:55:54;;;;;;;4.43;4.03;;;;;;;28.07;41.69;101225.38;21075383;28;20028;-76
2023/07/15 05:05:55;;;;;;;5.03;4.53;;;;;;;28.10;41.66;101219.09;21091804;28;20044;-76
2023/07/15 05:15:57;;;;;;;4.68;4.18;;;;;;;27.95;41.48;101183.78;21090326;28;20028;-76
2023/07/15 05:26:00;;;;;;;4.32;3.97;;;;;;;27.97;41.17;101187.09;21090019;28;20024;-75
2023/07/15 05:36:02;;;;;;;5.30;4.18;;;;;;;27.96;41.18;101179.81;21092607;28;20390;-75
2023/07/15 05:46:09;;;;;;;4.38;3.97;;;;;;;28.03;40.93;101173.72;21094031;28;20044;-74
2023/07/15 05:56:10;;;;;;;4.38;3.97;;;;;;;28.07;41.30;101191.59;21091826;28;20024;-75
2023/07/15 06:06:14;;;;;;;4.57;4.18;;;;;;;28.10;41.11;101197.41;21086530;28;20410;-76
2023/07/15 06:16:16;;;;;;;4.65;4.22;;;;;;;27.84;41.24;101135.41;21084791;28;20046;-75
2023/07/15 06:26:17;;;;;;;4.95;4.40;;;;;;;27.95;40.83;101143.56;21083056;28;20039;-75
2023/07/15 06:36:21;;;;;;;4.72;4.22;;;;;;;27.98;41.04;101138.13;21082154;28;20093;-75
2023/07/15 06:46:25;;;;;;;4.88;4.10;;;;;;;28.05;41.09;101148.91;21081093;28;20032;-76
2023/07/15 06:56:27;;;;;;;4.38;3.90;;;;;;;28.04;40.99;101148.09;21082173;28;20024;-75
2023/07/15 07:06:28;;;;;;;4.43;4.10;;;;;;;28.00;40.70;101135.00;21080586;28;20044;-75
2023/07/15 07:16:29;;;;;;;4.28;3.88;;;;;;;28.04;40.83;101110.66;21080154;28;20501;-75
2023/07/15 07:26:31;;;;;;;4.43;4.03;;;;;;;27.97;40.61;101085.00;21077402;28;20074;-76
2023/07/15 07:36:32;;;;;;;4.03;3.63;;;;;;;28.01;40.68;101084.03;21079077;28;20369;-75
2023/07/15 07:46:34;;;;;;;4.60;4.20;;;;;;;27.99;40.85;101082.69;21078558;28;20148;-74
2023/07/15 07:56:35;;;;;;;4.13;3.83;;;;;;;27.94;40.90;101080.03;21077797;28;20031;-75
2023/07/15 08:06:37;;;;;;;4.05;3.65;;;;;;;27.96;40.48;101086.16;21076891;28;20093;-76
2023/07/15 08:16:39;;;;;;;3.80;3.50;;;;;;;27.91;40.33;101086.31;21076820;28;20028;-75
2023/07/15 08:26:43;;;;;;;4.30;3.90;;;;;;;27.95;40.10;101098.56;21076680;28;20024;-75
2023/07/15 08:36:44;;;;;;;3.92;3.53;;;;;;;27.92;40.27;101121.72;21084977;28;20074;-75
2023/07/15 08:46:47;;;;;;;5.25;4.13;;;;;;;27.89;40.49;101116.75;21092466;28;20382;-76
2023/07/15 08:56:48;;;;;;;4.60;3.40;;;;;;;27.74;40.49;101104.78;21091500;28;20098;-76
2023/07/15 09:06:50;;;;;;;3.92;3.63;;;;;;;27.85;40.26;101123.00;21091078;28;20044;-74
2023/07/15 09:16:56;;;;;;;4.28;3.88;;;;;;;27.86;40.13;101138.75;21089855;28;20047;-75
2023/07/15 09:26:59;;;;;;;4.25;3.88;;;;;;;27.76;39.91;101136.19;21089315;28;20031;-77
2023/07/15 09:37:01;;;;;;;3.75;3.45;;;;;;;27.82;40.27;101140.53;21087027;28;20065;-76
2023/07/15 09:47:03;;;;;;;4.00;3.60;;;;;;;27.84;39.95;101157.09;21086503;28;20074;-75
2023/07/15 09:57:15;;;;;;;4.00;3.70;;;;;;;27.80;40.25;101170.94;21087018;28;20031;-75
2023/07/15 10:07:18;;;;;;;4.20;3.90;;;;;;;27.83;39.90;101169.50;21083324;28;20571;-76
2023/07/15 10:17:19;;;;;;;4.05;3.75;;;;;;;27.70;40.08;101165.56;21083959;28;20040;-79
2023/07/15 10:27:21;;;;;;;4.00;3.60;;;;;;;27.80;39.67;101176.56;21082763;28;20459;-73
2023/07/15 10:37:22;;;;;;;4.20;3.80;;;;;;;27.76;39.58;101186.81;21084442;28;20028;-76
2023/07/15 10:47:24;;;;;;;3.80;3.50;;;;;;;27.75;39.36;101195.56;21082222;28;20032;-75
2023/07/15 10:57:27;;;;;;;4.18;3.78;;;;;;;27.68;39.44;101207.25;21081713;28;20032;-77
2023/07/15 11:07:32;;;;;;;3.85;3.47;;;;;;;27.79;39.34;101219.91;21080197;28;20453;-75
2023/07/15 11:17:40;;;;;;;3.40;3.10;;;;;;;27.61;39.13;101209.69;21080014;28;20481;-75
2023/07/15 11:27:42;;;;;;;3.97;3.60;;;;;;;27.80;39.14;101260.13;21079358;28;20105;-75
2023/07/15 11:37:44;;;;;;;3.42;3.13;;;;;;;27.79;39.52;101264.91;21078792;28;20027;-75
2023/07/15 11:47:45;;;;;;;3.90;3.60;;;;;;;27.74;39.08;101259.41;21077773;28;20028;-75
2023/07/15 11:57:47;;;;;;;3.17;2.97;;;;;;;27.76;38.85;101273.16;21076900;28;20612;-73
2023/07/15 12:07:52;;;;;;;3.42;3.13;;;;;;;27.75;39.35;101271.50;21076162;28;20055;-76
2023/07/15 12:17:54;;;;;;;3.53;3.22;;;;;;;27.66;39.29;101257.34;21075795;28;20044;-75
2023/07/15 12:27:55;;;;;;;3.30;3.00;;;;;;;27.72;39.14;101258.06;21075558;28;20043;-75
2023/07/15 12:37:57;;;;;;;3.28;3.08;;;;;;;27.34;39.07;101205.84;21076066;28;20069;-76
2023/07/15 12:47:58;;;;;;;3.25;3.05;;;;;;;27.66;39.05;101260.16;21073229;28;20097;-74
2023/07/15 12:57:59;;;;;;;3.63;3.33;;;;;;;27.73;39.09;101271.00;21074431;28;20040;-74
2023/07/15 13:08:04;;;;;;;3.58;3.28;;;;;;;27.77;39.07;101289.72;21072939;28;20052;-76
2023/07/15 13:18:08;;;;;;;2.88;2.67;;;;;;;27.75;39.20;101286.38;21073420;28;20036;-74
2023/07/15 13:28:09;;;;;;;3.15;2.85;;;;;;;27.58;39.26;101247.72;21088401;28;20097;-75
2023/07/15 13:38:11;;;;;;;2.90;2.70;;;;;;;27.77;39.50;101284.09;21086534;28;20028;-75
2023/07/15 13:48:12;;;;;;;2.65;2.45;;;;;;;27.76;39.58;101268.34;21085456;28;20044;-75
2023/07/15 13:58:19;;;;;;;3.35;3.05;;;;;;;27.57;39.59;101239.56;21085243;28;20479;-75
2023/07/15 14:08:27;;;;;;;3.10;2.83;;;;;;;27.77;39.71;101274.84;21081608;28;20070;-74
2023/07/15 14:18:29;;;;;;;3.50;3.20;;;;;;;27.65;39.77;101241.63;21084013;28;20127;-74
2023/07/15 14:28:33;;;;;;;3.53;3.22;;;;;;;27.77;39.72;101258.78;21083175;28;20028;-75
2023/07/15 14:38:34;;;;;;;3.30;3.00;;;;;;;27.75;39.86;101258.25;21083157;28;20528;-75
2023/07/15 14:48:37;;;;;;;3.33;3.03;;;;;;;27.82;40.23;101272.72;21082529;28;20057;-75
2023/07/15 14:58:39;;;;;;;4.20;3.00;;;;;;;27.76;40.06;101259.91;21081253;28;20028;-75
2023/07/15 15:08:41;;;;;;;3.33;3.03;;;;;;;27.84;40.13;101261.97;21080550;28;20040;-75
2023/07/15 15:18:45;;;;;;;3.67;3.35;;;;;;;27.72;40.38;101230.81;21079368;28;20036;-75
2023/07/15 15:28:47;;;;;;;3.60;3.30;;;;;;;27.82;40.81;101241.78;21081157;28;20078;-75
2023/07/15 15:38:52;;;;;;;3.50;3.20;;;;;;;27.90;41.13;101248.59;21078111;28;20044;-74
2023/07/15 15:48:53;;;;;;;3.78;3.42;;;;;;;27.86;41.21;101242.81;21077608;28;20085;-76
2023/07/15 15:58:55;;;;;;;3.63;3.28;;;;;;;27.76;41.31;101220.53;21077462;28;20032;-74
2023/07/15 16:08:59;;;;;;;3.72;3.42;;;;;;;27.96;41.33;101246.50;21076008;28;20367;-74
2023/07/15 16:19:03;;;;;;;4.28;3.60;;;;;;;27.86;41.54;101242.81;21075672;28;20048;-74
2023/07/15 16:29:07;;;;;;;3.90;3.60;;;;;;;27.95;41.51;101256.91;21074506;28;20097;-74
2023/07/15 16:39:08;;;;;;;4.00;3.60;;;;;;;27.85;41.46;101215.81;21075817;28;20548;-74
2023/07/15 16:49:10;;;;;;;4.25;3.58;;;;;;;27.98;41.92;101214.06;21074137;28;20051;-74
2023/07/15 16:59:11;;;;;;;3.95;3.63;;;;;;;28.04;42.26;101206.31;21087407;28;20445;-75
2023/07/15 17:09:16;;;;;;;3.45;3.15;;;;;;;27.62;42.39;101112.94;21090593;28;20097;-74
2023/07/15 17:19:17;;;;;;;4.13;3.83;;;;;;;27.99;42.23;101155.81;21089330;28;20032;-75
2023/07/15 17:29:18;;;;;;;3.50;3.20;;;;;;;28.10;42.36;101146.78;21087114;28;20457;-74
2023/07/15 17:39:20;;;;;;;3.95;3.63;;;;;;;28.11;42.36;101127.91;21087962;28;20028;-75
2023/07/15 17:49:21;;;;;;;3.90;3.60;;;;;;;28.17;42.59;101129.41;21086157;28;20097;-75
2023/07/15 17:59:23;;;;;;;3.95;3.65;;;;;;;28.10;42.80;101117.81;21085321;28;20032;-74
2023/07/15 18:09:24;;;;;;;4.10;3.75;;;;;;;28.06;42.58;101111.19;21083110;28;20044;-76
2023/07/15 18:19:25;;;;;;;4.25;3.63;;;;;;;28.22;42.54;101117.19;21085277;28;20040;-75
2023/07/15 18:29:29;;;;;;;4.72;4.22;;;;;;;28.24;42.92;101129.78;21084262;28;20028;-74
2023/07/15 18:39:31;;;;;;;4.43;4.03;;;;;;;28.23;42.21;101122.50;21083780;28;20204;-75
2023/07/15 18:49:33;;;;;;;4.20;3.80;;;;;;;28.03;42.77;101086.50;21080916;28;20097;-75
2023/07/15 18:59:35;;;;;;;4.40;4.00;;;;;;;28.07;42.94;101082.72;21082030;28;20055;-75
2023/07/15 19:09:36;;;;;;;3.90;3.50;;;;;;;28.25;42.83;101079.97;21080472;28;20101;-75
2023/07/15 19:19:37;;;;;;;4.47;4.07;;;;;;;28.32;42.78;101058.63;21079262;28;20024;-75
2023/07/15 19:29:43;;;;;;;4.68;4.25;;;;;;;28.34;42.96;101047.03;21079251;28;20028;-75
2023/07/15 19:39:44;;;;;;;4.57;4.17;;;;;;;28.33;42.64;101031.31;21076391;28;20044;-75
2023/07/15 19:49:49;;;;;;;3.97;3.67;;;;;;;28.35;42.80;101004.50;21077774;28;20031;-75
2023/07/15 19:59:53;;;;;;;5.03;4.53;;;;;;;28.34;42.64;101000.03;21077368;28;20383;-74
2023/07/15 20:09:57;;;;;;;4.78;4.38;;;;;;;28.30;42.91;100975.66;21075783;28;20093;-75
2023/07/15 20:19:59;;;;;;;4.90;4.40;;;;;;;28.38;42.89;101019.09;21075148;28;20035;-78
2023/07/15 20:30:09;;;;;;;4.60;4.20;;;;;;;28.27;42.59;100993.22;21081111;28;20047;-74
2023/07/15 20:40:11;;;;;;;5.28;4.78;;;;;;;28.41;42.27;101002.38;21093486;28;20078;-75
2023/07/15 20:50:14;;;;;;;4.70;4.30;;;;;;;28.41;42.41;100998.72;21094399;28;20487;-76
2023/07/15 21:00:16;;;;;;;4.45;4.05;;;;;;;28.26;42.57;100969.88;21092480;28;20036;-76
2023/07/15 21:10:18;;;;;;;4.43;4.05;;;;;;;28.40;42.36;100989.44;21089980;28;20044;-76
2023/07/15 21:20:22;;;;;;;4.72;4.22;;;;;;;28.42;42.42;101006.00;21089313;28;20040;-76
2023/07/15 21:30:23;;;;;;;4.75;4.32;;;;;;;28.42;42.06;101006.00;21087719;28;20120;-75
2023/07/15 21:40:29;;;;;;;4.60;4.20;;;;;;;28.36;42.09;101009.00;21086742;28;20062;-76
2023/07/15 21:50:31;;;;;;;4.95;4.45;;;;;;;28.42;41.93;101036.97;21069150;28;20380;-75
2023/07/15 22:00:33;;;;;;;4.60;4.20;;;;;;;28.41;41.84;101026.84;21084513;28;20118;-75
2023/07/15 22:10:34;;;;;;;4.68;4.22;;;;;;;28.42;41.85;101042.59;21083756;28;20097;-76
2023/07/15 22:20:36;;;;;;;4.25;3.85;;;;;;;28.34;41.78;101036.63;21085028;28;20031;-76
2023/07/15 22:30:38;;;;;;;4.15;3.72;;;;;;;28.28;41.84;101018.22;21084315;28;20028;-76
2023/07/15 22:40:40;;;;;;;3.92;3.53;;;;;;;28.36;41.82;101037.16;21082960;28;20384;-76
2023/07/15 22:50:42;;;;;;;4.10;3.75;;;;;;;28.27;42.10;101044.72;21080355;28;20074;-75
2023/07/15 23:00:44;;;;;;;4.82;3.88;;;;;;;28.41;42.32;101046.56;21063101;28;20040;-75
2023/07/15 23:10:46;;;;;;;3.78;3.47;;;;;;;28.43;42.36;101072.41;21078659;28;20085;-77
2023/07/15 23:20:51;;;;;;;4.47;4.07;;;;;;;28.40;42.02;101070.22;21079866;28;20044;-76
2023/07/15 23:30:53;;;;;;;3.85;3.45;;;;;;;28.37;42.02;101060.47;21079186;28;20048;-76
2023/07/15 23:40:54;;;;;;;4.03;3.65;;;;;;;28.45;42.06;101087.78;21078646;28;20028;-77
2023/07/15 23:50:56;;;;;;;4.40;4.00;;;;;;;28.42;42.28;101079.19;21077964;28;20040;-75
